Time;durP1;ratioP1;P1;durP2;ratioP2;P2;SDS_P1;SDS_P2;PMS_P1;PMS_P2;Temp;Humidity;BMP_temperature;BMP_pressure;BME280_temperature;BME280_humidity;BME280_pressure;Samples;Min_cycle;Max_cycle;Signal;HPM_P1;HPM_P2
2023/04/25 00:00:14;;;;;;;4.97;4.27;;;;;;;;;;5010142;28;20696;-66
2023/04/25 00:02:41;;;;;;;5.97;4.40;;;;;;;;;;5009507;28;20609;-66
2023/04/25 00:05:08;;;;;;;4.93;4.17;;;;;;;;;;5010280;28;20277;-66
2023/04/25 00:07:35;;;;;;;8.47;4.50;;;;;;;;;;4992452;28;20231;-66
2023/04/25 00:10:03;;;;;;;4.83;4.33;;;;;;;;;;5010432;28;20271;-66
2023/04/25 00:12:30;;;;;;;4.93;4.37;;;;;;;;;;5009973;28;20231;-66
2023/04/25 00:14:56;;;;;;;6.43;5.30;;;;;;;;;;5023375;28;20555;-65
2023/04/25 00:17:24;;;;;;;6.50;4.83;;;;;;;;;;5029362;28;20231;-65
2023/04/25 00:19:51;;;;;;;5.37;4.43;;;;;;;;;;5028404;28;20227;-65
2023/04/25 00:22:17;;;;;;;5.63;4.93;;;;;;;;;;5029845;28;20188;-66
2023/04/25 00:24:45;;;;;;;5.50;4.60;;;;;;;;;;5029397;28;20188;-65
2023/04/25 00:27:11;;;;;;;5.67;4.57;;;;;;;;;;5029497;28;21013;-65
2023/04/25 00:29:38;;;;;;;5.43;4.73;;;;;;;;;;5029350;28;20663;-66
2023/04/25 00:32:05;;;;;;;4.93;4.43;;;;;;;;;;5029294;28;20238;-65
2023/04/25 00:34:31;;;;;;;6.20;4.60;;;;;;;;;;5011220;28;20203;-66
2023/04/25 00:36:58;;;;;;;5.20;4.70;;;;;;;;;;5009945;28;20196;-66
2023/04/25 00:39:25;;;;;;;5.73;4.90;;;;;;;;;;4993795;28;20221;-66
2023/04/25 00:41:54;;;;;;;5.77;5.00;;;;;;;;;;5029272;28;20195;-65
2023/04/25 00:44:21;;;;;;;6.13;4.87;;;;;;;;;;4995657;28;20206;-66
2023/04/25 00:46:48;;;;;;;6.13;5.27;;;;;;;;;;5011305;28;20182;-65
2023/04/25 00:49:16;;;;;;;7.53;5.30;;;;;;;;;;5029478;28;20551;-65
2023/04/25 00:51:44;;;;;;;6.00;5.27;;;;;;;;;;5027718;28;20184;-65
2023/04/25 00:54:11;;;;;;;6.23;5.47;;;;;;;;;;5029057;28;20938;-65
2023/04/25 00:56:38;;;;;;;6.77;5.27;;;;;;;;;;5011515;28;20598;-66
2023/04/25 00:59:05;;;;;;;6.90;5.03;;;;;;;;;;5028576;28;20191;-65
2023/04/25 01:01:32;;;;;;;6.87;5.17;;;;;;;;;;5011156;28;20222;-66
2023/04/25 01:03:59;;;;;;;7.47;5.13;;;;;;;;;;5029186;28;20196;-66
2023/04/25 01:06:27;;;;;;;6.20;5.50;;;;;;;;;;4995138;28;20310;-66
2023/04/25 01:08:53;;;;;;;7.67;5.83;;;;;;;;;;4993587;28;20204;-66
2023/04/25 01:11:20;;;;;;;6.97;6.07;;;;;;;;;;5010990;28;20246;-65
2023/04/25 01:13:46;;;;;;;13.73;6.63;;;;;;;;;;5028320;28;20198;-65
2023/04/25 01:16:14;;;;;;;9.10;6.77;;;;;;;;;;5028876;28;20211;-65
2023/04/25 01:18:41;;;;;;;7.80;7.00;;;;;;;;;;5028505;28;20247;-65
2023/04/25 01:21:09;;;;;;;9.10;6.90;;;;;;;;;;4994733;28;20223;-64
2023/04/25 01:23:40;;;;;;;7.70;6.87;;;;;;;;;;5027439;28;20199;-64
2023/04/25 01:26:11;;;;;;;7.13;6.43;;;;;;;;;;5027175;28;20743;-64
2023/04/25 01:28:40;;;;;;;7.93;6.83;;;;;;;;;;5027469;28;20533;-64
2023/04/25 01:31:09;;;;;;;8.27;6.60;;;;;;;;;;5007939;28;20318;-65
2023/04/25 01:33:36;;;;;;;7.80;6.43;;;;;;;;;;5010827;28;20330;-64
2023/04/25 01:36:03;;;;;;;12.10;6.90;;;;;;;;;;5010666;28;20204;-64
2023/04/25 01:38:30;;;;;;;10.43;6.80;;;;;;;;;;5028027;28;20195;-64
2023/04/25 01:40:57;;;;;;;6.53;5.80;;;;;;;;;;4994193;28;20734;-65
2023/04/25 02:15:17;;;;;;;8.50;7.13;;;;;;;;;;5027240;28;20232;-63
2023/04/25 02:17:55;;;;;;;8.83;7.73;;;;;;;;;;5009774;28;20255;-63
2023/04/25 02:20:23;;;;;;;9.10;7.60;;;;;;;;;;5027772;28;20773;-63
2023/04/25 02:22:49;;;;;;;9.27;7.70;;;;;;;;;;5010199;28;20241;-63
2023/04/25 02:25:16;;;;;;;9.57;7.90;;;;;;;;;;4994253;28;20206;-63
2023/04/25 02:27:43;;;;;;;10.55;9.10;;;;;;;;;;5009302;28;20429;-63
2023/04/25 02:30:10;;;;;;;8.40;7.60;;;;;;;;;;4992777;28;20196;-63
2023/04/25 02:32:38;;;;;;;9.87;7.97;;;;;;;;;;4990644;28;20200;-63
2023/04/25 02:35:05;;;;;;;10.20;7.77;;;;;;;;;;5007989;28;20246;-63
2023/04/25 02:37:33;;;;;;;8.90;7.73;;;;;;;;;;5006567;28;20224;-63
2023/04/25 02:39:59;;;;;;;10.07;8.03;;;;;;;;;;5029624;28;20287;-63
2023/04/25 02:42:26;;;;;;;9.47;8.20;;;;;;;;;;5010382;28;20191;-63
2023/04/25 02:44:53;;;;;;;10.63;8.13;;;;;;;;;;5012986;28;20304;-63
2023/04/25 02:47:20;;;;;;;10.77;8.40;;;;;;;;;;4994910;28;21044;-63
2023/04/25 02:49:49;;;;;;;8.23;7.23;;;;;;;;;;5011502;28;20207;-63
2023/04/25 02:52:16;;;;;;;8.50;7.43;;;;;;;;;;4994433;28;20626;-63
2023/04/25 02:54:48;;;;;;;10.33;7.80;;;;;;;;;;5026664;28;20231;-63
2023/04/25 02:57:15;;;;;;;8.33;7.03;;;;;;;;;;4993659;28;20196;-63
2023/04/25 02:59:41;;;;;;;9.80;7.07;;;;;;;;;;5010252;28;20188;-62
2023/04/25 03:02:08;;;;;;;8.50;7.20;;;;;;;;;;5011110;28;20219;-63
2023/04/25 03:04:35;;;;;;;8.30;7.40;;;;;;;;;;5006918;28;20660;-62
2023/04/25 03:07:04;;;;;;;7.80;7.00;;;;;;;;;;5011410;28;20579;-63
2023/04/25 03:09:31;;;;;;;8.53;7.63;;;;;;;;;;5011462;28;20191;-63
2023/04/25 03:11:58;;;;;;;8.03;7.23;;;;;;;;;;5011499;28;20195;-63
2023/04/25 03:14:25;;;;;;;8.43;7.43;;;;;;;;;;5011135;28;20654;-62
2023/04/25 03:16:52;;;;;;;8.03;7.20;;;;;;;;;;4993348;28;20207;-62
2023/04/25 03:19:20;;;;;;;9.17;7.37;;;;;;;;;;5009920;28;20235;-63
2023/04/25 03:21:47;;;;;;;8.83;7.23;;;;;;;;;;5026173;28;20231;-63
2023/04/25 03:24:13;;;;;;;9.77;7.03;;;;;;;;;;5006868;28;20202;-63
2023/04/25 03:26:40;;;;;;;8.70;6.43;;;;;;;;;;5045966;28;20210;-63
2023/04/25 03:29:07;;;;;;;7.00;6.30;;;;;;;;;;5030326;28;20206;-65
2023/04/25 03:31:35;;;;;;;6.30;5.70;;;;;;;;;;5011890;28;20566;-62
2023/04/25 03:34:01;;;;;;;6.13;5.47;;;;;;;;;;5030682;28;20892;-65
2023/04/25 03:36:29;;;;;;;7.33;5.73;;;;;;;;;;5030640;28;20671;-64
2023/04/25 03:38:56;;;;;;;7.87;5.57;;;;;;;;;;5011968;28;20554;-65
2023/04/25 03:41:23;;;;;;;6.13;5.23;;;;;;;;;;5012600;28;20253;-64
2023/04/25 03:43:54;;;;;;;5.77;5.17;;;;;;;;;;5012267;28;20206;-65
2023/04/25 03:46:21;;;;;;;6.83;6.00;;;;;;;;;;5012796;28;20191;-64
2023/04/25 03:48:48;;;;;;;7.40;5.50;;;;;;;;;;5012413;28;20669;-64
2023/04/25 03:51:20;;;;;;;6.50;4.70;;;;;;;;;;5012507;28;20192;-65
2023/04/25 03:53:47;;;;;;;5.70;5.10;;;;;;;;;;5030003;28;20563;-64
2023/04/25 03:56:14;;;;;;;5.97;5.13;;;;;;;;;;5030226;28;20690;-64
2023/04/25 03:58:45;;;;;;;7.37;5.37;;;;;;;;;;5008569;28;20220;-64
2023/04/25 04:01:14;;;;;;;7.50;6.33;;;;;;;;;;4992747;28;20315;-64
2023/04/25 04:03:41;;;;;;;6.97;6.23;;;;;;;;;;5010096;28;20575;-64
2023/04/25 04:06:09;;;;;;;7.47;5.80;;;;;;;;;;5008781;28;20192;-64
2023/04/25 04:08:39;;;;;;;6.63;5.73;;;;;;;;;;5008817;28;20224;-64
2023/04/25 04:11:06;;;;;;;7.57;6.30;;;;;;;;;;4992560;28;20638;-64
2023/04/25 04:13:33;;;;;;;7.90;6.57;;;;;;;;;;5025225;28;20202;-64
2023/04/25 04:16:01;;;;;;;7.13;5.90;;;;;;;;;;4995600;28;20303;-64
2023/04/25 04:18:28;;;;;;;7.83;6.20;;;;;;;;;;4989025;28;20216;-64
2023/04/25 04:20:57;;;;;;;7.30;6.10;;;;;;;;;;4989144;28;20208;-65
2023/04/25 04:23:27;;;;;;;6.97;5.73;;;;;;;;;;5005323;28;20247;-64
2023/04/25 04:25:56;;;;;;;7.27;5.90;;;;;;;;;;4988955;28;20635;-64
2023/04/25 04:28:50;;;;;;;6.80;6.10;;;;;;;;;;4988758;28;20236;-64
2023/04/25 04:31:52;;;;;;;6.47;5.50;;;;;;;;;;4942950;29;20217;-64
2023/04/25 04:34:20;;;;;;;6.30;5.60;;;;;;;;;;4979306;28;20197;-65
2023/04/25 04:36:47;;;;;;;7.60;6.13;;;;;;;;;;4975667;28;20188;-64
2023/04/25 04:39:17;;;;;;;7.93;5.17;;;;;;;;;;4999372;28;20195;-68
2023/04/25 04:42:04;;;;;;;9.73;6.10;;;;;;;;;;5008356;28;20253;-65
2023/04/25 04:44:52;;;;;;;8.87;6.03;;;;;;;;;;4993676;28;20196;-65
2023/04/25 04:47:25;;;;;;;10.20;6.20;;;;;;;;;;5027084;28;20211;-64
2023/04/25 04:50:12;;;;;;;6.70;5.70;;;;;;;;;;4971770;28;20639;-64
2023/04/25 04:52:59;;;;;;;8.97;6.40;;;;;;;;;;5001364;28;20254;-65
2023/04/25 04:55:40;;;;;;;8.23;6.47;;;;;;;;;;4984584;28;20228;-64
2023/04/25 04:58:29;;;;;;;9.33;6.70;;;;;;;;;;4997351;28;20683;-63
2023/04/25 05:01:22;;;;;;;9.20;6.30;;;;;;;;;;4968770;28;20244;-63
2023/04/25 05:04:02;;;;;;;6.93;5.70;;;;;;;;;;4994884;28;20314;-63
2023/04/25 05:06:44;;;;;;;7.57;6.10;;;;;;;;;;4990344;28;20286;-63
2023/04/25 05:09:42;;;;;;;8.07;5.77;;;;;;;;;;4992591;28;20200;-63
2023/04/25 05:12:09;;;;;;;6.60;5.67;;;;;;;;;;5011106;28;20196;-64
2023/04/25 05:14:56;;;;;;;6.70;5.77;;;;;;;;;;5009674;28;20227;-64
2023/04/25 05:17:30;;;;;;;7.83;5.70;;;;;;;;;;5016488;28;20223;-63
2023/04/25 05:20:20;;;;;;;8.30;5.67;;;;;;;;;;5003659;28;20249;-63
2023/04/25 05:23:13;;;;;;;8.87;6.17;;;;;;;;;;5003098;28;20224;-63
2023/04/25 05:26:03;;;;;;;8.83;5.80;;;;;;;;;;5013675;28;20291;-62
2023/04/25 05:28:59;;;;;;;7.37;5.53;;;;;;;;;;5025248;28;20199;-63
2023/04/25 05:31:38;;;;;;;6.97;5.10;;;;;;;;;;5013034;28;20678;-63
2023/04/25 05:34:13;;;;;;;6.40;5.03;;;;;;;;;;5005570;28;20192;-63
2023/04/25 05:37:08;;;;;;;8.23;4.73;;;;;;;;;;5019492;28;20266;-63
2023/04/25 05:39:45;;;;;;;6.73;5.37;;;;;;;;;;5009763;28;20202;-65
2023/04/25 05:42:44;;;;;;;7.10;4.70;;;;;;;;;;5032780;28;20352;-66
2023/04/25 05:45:26;;;;;;;5.00;3.53;;;;;;;;;;5020329;28;20207;-63
2023/04/25 05:48:16;;;;;;;8.03;5.10;;;;;;;;;;5025506;28;20265;-64
2023/04/25 05:51:18;;;;;;;8.50;3.80;;;;;;;;;;4960284;28;20208;-63
2023/04/25 05:54:08;;;;;;;7.00;4.47;;;;;;;;;;5025034;28;20243;-63
2023/04/25 05:56:35;;;;;;;9.07;4.17;;;;;;;;;;5010244;28;20187;-63
2023/04/25 05:59:03;;;;;;;8.00;4.13;;;;;;;;;;5013028;28;20594;-63
2023/04/25 06:01:30;;;;;;;10.73;4.60;;;;;;;;;;5036670;28;20586;-63
2023/04/25 06:03:57;;;;;;;6.70;4.97;;;;;;;;;;5010689;28;20554;-63
2023/04/25 06:06:25;;;;;;;6.77;5.10;;;;;;;;;;5009873;28;20624;-63
2023/04/25 06:08:52;;;;;;;8.53;5.03;;;;;;;;;;5027764;28;20269;-63
2023/04/25 06:11:18;;;;;;;6.83;4.57;;;;;;;;;;5010268;28;20655;-64
2023/04/25 06:13:45;;;;;;;6.97;4.63;;;;;;;;;;5010070;28;20195;-63
2023/04/25 06:16:15;;;;;;;5.83;4.23;;;;;;;;;;5010099;28;20286;-63
2023/04/25 06:18:42;;;;;;;8.63;4.97;;;;;;;;;;5011371;28;20314;-64
2023/04/25 06:21:09;;;;;;;6.77;4.47;;;;;;;;;;5013790;28;20215;-63
2023/04/25 06:23:36;;;;;;;6.50;4.77;;;;;;;;;;5013754;28;20209;-63
2023/04/25 06:26:06;;;;;;;8.97;5.27;;;;;;;;;;5013846;28;20246;-63
2023/04/25 06:28:35;;;;;;;7.33;4.77;;;;;;;;;;5014024;28;20211;-63
2023/04/25 06:31:03;;;;;;;7.17;5.43;;;;;;;;;;5013930;28;20658;-63
2023/04/25 06:33:30;;;;;;;6.77;4.53;;;;;;;;;;5013858;28;20245;-63
2023/04/25 06:35:58;;;;;;;9.23;5.00;;;;;;;;;;5013880;28;20206;-63
2023/04/25 06:38:27;;;;;;;6.97;5.17;;;;;;;;;;5046918;28;20203;-63
2023/04/25 06:40:55;;;;;;;10.17;5.17;;;;;;;;;;5013568;28;20191;-63
2023/04/25 06:43:22;;;;;;;6.67;4.80;;;;;;;;;;5014017;28;20198;-63
2023/04/25 06:46:04;;;;;;;6.00;4.70;;;;;;;;;;5013618;28;20203;-63
2023/04/25 06:48:34;;;;;;;6.77;4.73;;;;;;;;;;5013642;28;20203;-63
2023/04/25 06:51:01;;;;;;;8.23;4.13;;;;;;;;;;5013413;28;20375;-63
2023/04/25 06:53:28;;;;;;;7.20;4.23;;;;;;;;;;5013713;28;20266;-63
2023/04/25 06:55:59;;;;;;;7.40;4.83;;;;;;;;;;5013350;28;20207;-63
2023/04/25 06:58:36;;;;;;;4.87;3.80;;;;;;;;;;5013775;28;20282;-64
2023/04/25 07:01:09;;;;;;;5.13;3.87;;;;;;;;;;5013462;28;20200;-63
2023/04/25 07:03:37;;;;;;;3.80;3.33;;;;;;;;;;5031346;28;20539;-63
2023/04/25 07:06:12;;;;;;;4.50;3.60;;;;;;;;;;5013014;28;20187;-63
2023/04/25 07:08:38;;;;;;;4.67;3.47;;;;;;;;;;5030964;28;20199;-65
2023/04/25 07:11:05;;;;;;;4.53;3.53;;;;;;;;;;5031168;28;20191;-63
2023/04/25 07:13:32;;;;;;;4.07;3.33;;;;;;;;;;5031056;28;20267;-63
2023/04/25 07:15:59;;;;;;;4.50;3.30;;;;;;;;;;5013321;28;20203;-63
2023/04/25 07:18:28;;;;;;;5.00;3.37;;;;;;;;;;5013061;28;20227;-63
2023/04/25 07:20:54;;;;;;;3.97;2.70;;;;;;;;;;5013021;28;20212;-63
2023/04/25 07:23:22;;;;;;;3.60;2.60;;;;;;;;;;5012892;28;20230;-63
2023/04/25 07:25:49;;;;;;;3.13;2.30;;;;;;;;;;5012681;28;20198;-63
2023/04/25 07:28:20;;;;;;;3.03;2.43;;;;;;;;;;5030953;28;20183;-63
2023/04/25 07:30:47;;;;;;;3.53;1.80;;;;;;;;;;5012106;28;20195;-63
2023/04/25 07:33:13;;;;;;;3.37;1.53;;;;;;;;;;5030662;28;20183;-63
2023/04/25 07:35:40;;;;;;;1.97;1.50;;;;;;;;;;5030273;28;20192;-63
2023/04/25 07:38:07;;;;;;;1.60;1.50;;;;;;;;;;5011873;28;20262;-63
2023/04/25 07:40:35;;;;;;;3.27;1.77;;;;;;;;;;5012422;28;20278;-64
2023/04/25 07:43:05;;;;;;;2.47;1.80;;;;;;;;;;5012830;28;20278;-63
2023/04/25 07:45:39;;;;;;;3.70;1.63;;;;;;;;;;5012460;28;20200;-64
2023/04/25 07:48:06;;;;;;;3.70;1.70;;;;;;;;;;5012727;28;20195;-63
2023/04/25 07:50:36;;;;;;;1.57;1.47;;;;;;;;;;5012212;28;20210;-63
2023/04/25 07:53:03;;;;;;;1.80;1.53;;;;;;;;;;5030151;28;20204;-63
2023/04/25 07:55:36;;;;;;;3.50;1.70;;;;;;;;;;5012304;28;20198;-63
2023/04/25 07:58:15;;;;;;;3.37;1.73;;;;;;;;;;5012316;28;20195;-63
2023/04/25 08:00:44;;;;;;;3.47;1.50;;;;;;;;;;5012136;28;20199;-64
2023/04/25 08:03:37;;;;;;;3.20;1.70;;;;;;;;;;5012335;28;20249;-63
2023/04/25 08:06:10;;;;;;;1.33;1.23;;;;;;;;;;5012224;28;20200;-63
2023/04/25 08:08:47;;;;;;;2.07;1.47;;;;;;;;;;5012166;28;20203;-63
2023/04/25 08:11:17;;;;;;;2.10;1.40;;;;;;;;;;5012072;28;20209;-63
2023/04/25 08:13:44;;;;;;;2.53;1.60;;;;;;;;;;5012231;28;20725;-63
2023/04/25 08:16:11;;;;;;;4.70;1.80;;;;;;;;;;5029933;28;20196;-63
2023/04/25 08:18:38;;;;;;;2.07;1.27;;;;;;;;;;5011945;28;20878;-63
2023/04/25 08:21:05;;;;;;;2.43;1.63;;;;;;;;;;5012098;28;20211;-63
2023/04/25 08:23:31;;;;;;;2.50;1.63;;;;;;;;;;5011928;28;20338;-63
2023/04/25 08:26:08;;;;;;;2.80;1.70;;;;;;;;;;5029516;28;20271;-63
2023/04/25 08:28:37;;;;;;;1.87;1.50;;;;;;;;;;5011791;28;20682;-63
2023/04/25 08:31:05;;;;;;;2.53;1.80;;;;;;;;;;5012262;28;20187;-63
2023/04/25 08:33:41;;;;;;;1.60;1.50;;;;;;;;;;5011572;28;20202;-63
2023/04/25 08:36:25;;;;;;;1.90;1.70;;;;;;;;;;5011747;28;20198;-63
2023/04/25 08:39:15;;;;;;;3.33;1.60;;;;;;;;;;5011916;28;20203;-64
2023/04/25 08:41:57;;;;;;;2.53;1.70;;;;;;;;;;5010662;28;20226;-63
2023/04/25 08:44:24;;;;;;;2.50;1.60;;;;;;;;;;5012026;28;20214;-63
2023/04/25 08:46:52;;;;;;;2.73;1.90;;;;;;;;;;4995180;28;20205;-63
2023/04/25 08:49:26;;;;;;;2.53;1.70;;;;;;;;;;5011441;28;20203;-64
2023/04/25 08:51:53;;;;;;;1.60;1.43;;;;;;;;;;5029109;28;20225;-63
2023/04/25 08:54:23;;;;;;;3.10;1.97;;;;;;;;;;4995377;28;20207;-63
2023/04/25 08:57:02;;;;;;;4.13;1.63;;;;;;;;;;5011092;28;20223;-64
2023/04/25 08:59:28;;;;;;;1.90;1.60;;;;;;;;;;5011421;28;20198;-63
2023/04/25 09:01:55;;;;;;;2.87;2.20;;;;;;;;;;4994631;28;20285;-63
2023/04/25 09:04:22;;;;;;;4.40;1.83;;;;;;;;;;5011577;28;20718;-63
2023/04/25 09:06:50;;;;;;;2.20;1.90;;;;;;;;;;5028696;28;20191;-63
2023/04/25 09:09:16;;;;;;;1.70;1.60;;;;;;;;;;5028938;28;20198;-63
2023/04/25 09:11:43;;;;;;;1.93;1.60;;;;;;;;;;5011131;28;20199;-64
2023/04/25 09:14:22;;;;;;;4.80;2.20;;;;;;;;;;5010880;28;20254;-63
2023/04/25 09:17:24;;;;;;;3.47;2.20;;;;;;;;;;4967558;28;20581;-64
2023/04/25 09:19:53;;;;;;;3.43;2.00;;;;;;;;;;5003333;28;20199;-63
2023/04/25 09:22:30;;;;;;;2.57;1.90;;;;;;;;;;5028878;28;20223;-63
2023/04/25 09:24:57;;;;;;;2.33;1.53;;;;;;;;;;5011454;28;20199;-63
2023/04/25 09:27:27;;;;;;;2.23;1.60;;;;;;;;;;5010580;28;20626;-63
2023/04/25 09:30:15;;;;;;;2.93;1.90;;;;;;;;;;5010160;28;20195;-63
2023/04/25 09:33:12;;;;;;;3.13;2.10;;;;;;;;;;5024990;28;20242;-63
2023/04/25 09:35:45;;;;;;;2.03;1.70;;;;;;;;;;5010594;28;20282;-63
2023/04/25 09:38:21;;;;;;;2.20;1.30;;;;;;;;;;5010647;28;20205;-63
2023/04/25 09:40:51;;;;;;;2.03;1.70;;;;;;;;;;5028284;28;20353;-64
2023/04/25 09:43:26;;;;;;;2.27;1.60;;;;;;;;;;4995886;28;20227;-64
2023/04/25 09:45:56;;;;;;;3.10;1.37;;;;;;;;;;5027944;28;20203;-63
2023/04/25 09:48:25;;;;;;;3.63;1.70;;;;;;;;;;5010529;28;20203;-64
2023/04/25 09:51:06;;;;;;;2.30;1.47;;;;;;;;;;5010503;28;20215;-63
2023/04/25 09:53:37;;;;;;;2.33;1.47;;;;;;;;;;5028084;28;21037;-63
2023/04/25 09:56:25;;;;;;;2.40;1.43;;;;;;;;;;5010656;28;20202;-64
2023/04/25 09:58:53;;;;;;;1.30;1.00;;;;;;;;;;4994342;28;20222;-64
2023/04/25 10:01:19;;;;;;;1.67;1.37;;;;;;;;;;5010806;28;20191;-64
2023/04/25 10:04:00;;;;;;;1.97;1.37;;;;;;;;;;4996389;28;20227;-64
2023/04/25 10:07:07;;;;;;;1.40;1.30;;;;;;;;;;4975931;28;20296;-63
2023/04/25 10:09:36;;;;;;;1.60;1.10;;;;;;;;;;5003085;28;20199;-64
2023/04/25 10:12:03;;;;;;;1.40;1.20;;;;;;;;;;5027732;28;20214;-64
2023/04/25 10:14:30;;;;;;;4.13;1.50;;;;;;;;;;5027933;28;20278;-64
2023/04/25 10:16:57;;;;;;;1.97;1.37;;;;;;;;;;5028098;28;20187;-63
2023/04/25 10:19:25;;;;;;;1.80;1.60;;;;;;;;;;5008653;28;20636;-63
2023/04/25 10:22:10;;;;;;;3.27;1.90;;;;;;;;;;5008305;28;20184;-64
2023/04/25 10:24:38;;;;;;;1.80;1.57;;;;;;;;;;5007936;28;20291;-64
2023/04/25 10:27:05;;;;;;;2.17;1.73;;;;;;;;;;5008247;28;20209;-64
2023/04/25 10:29:32;;;;;;;2.20;1.80;;;;;;;;;;4990569;28;20200;-64
2023/04/25 10:31:58;;;;;;;2.77;1.77;;;;;;;;;;5008126;28;20247;-64
2023/04/25 10:34:39;;;;;;;4.80;2.00;;;;;;;;;;5008304;28;20192;-64
2023/04/25 10:37:10;;;;;;;2.60;1.77;;;;;;;;;;5008193;28;20255;-64
2023/04/25 10:39:41;;;;;;;3.57;1.73;;;;;;;;;;5004530;28;20719;-64
2023/04/25 10:42:08;;;;;;;2.17;1.80;;;;;;;;;;5007645;28;20200;-63
2023/04/25 10:44:35;;;;;;;2.03;1.53;;;;;;;;;;4990256;28;20196;-64
2023/04/25 10:47:02;;;;;;;2.60;1.77;;;;;;;;;;4990482;28;20660;-63
2023/04/25 10:49:30;;;;;;;3.03;1.53;;;;;;;;;;5008073;28;20282;-64
2023/04/25 10:52:16;;;;;;;2.93;1.43;;;;;;;;;;5008272;28;20188;-64
2023/04/25 10:54:47;;;;;;;4.23;1.50;;;;;;;;;;5007631;28;20725;-63
2023/04/25 10:57:33;;;;;;;3.53;2.00;;;;;;;;;;5007705;28;20234;-64
2023/04/25 11:00:06;;;;;;;4.33;2.00;;;;;;;;;;5007426;28;20294;-64
2023/04/25 11:02:36;;;;;;;3.07;1.60;;;;;;;;;;5007906;28;20298;-64
2023/04/25 11:05:03;;;;;;;2.27;1.63;;;;;;;;;;5009511;28;20196;-64
2023/04/25 11:07:50;;;;;;;1.87;1.67;;;;;;;;;;5011855;28;20185;-63
2023/04/25 11:10:31;;;;;;;3.80;1.87;;;;;;;;;;5011648;28;20188;-64
2023/04/25 11:12:58;;;;;;;3.47;1.70;;;;;;;;;;5011937;28;20200;-64
2023/04/25 11:15:25;;;;;;;4.30;2.00;;;;;;;;;;5011295;28;20266;-64
2023/04/25 11:17:52;;;;;;;2.67;2.00;;;;;;;;;;5018123;28;20726;-63
2023/04/25 11:20:19;;;;;;;2.93;1.77;;;;;;;;;;5030983;28;20209;-64
2023/04/25 11:22:46;;;;;;;2.63;1.90;;;;;;;;;;5030928;28;20342;-63
2023/04/25 11:25:13;;;;;;;3.33;1.77;;;;;;;;;;5031070;28;20221;-64
2023/04/25 11:27:50;;;;;;;2.40;1.70;;;;;;;;;;5031062;28;20799;-64
2023/04/25 11:30:17;;;;;;;2.47;1.70;;;;;;;;;;5030703;28;20195;-64
2023/04/25 11:32:45;;;;;;;4.77;2.23;;;;;;;;;;5030717;28;20196;-64
2023/04/25 11:35:12;;;;;;;5.37;2.53;;;;;;;;;;5030647;28;20295;-64
2023/04/25 11:37:39;;;;;;;5.03;4.53;;;;;;;;;;5030633;28;20195;-64
2023/04/25 11:40:06;;;;;;;5.50;4.00;;;;;;;;;;5023429;28;20186;-64
2023/04/25 11:42:33;;;;;;;4.50;3.60;;;;;;;;;;4993206;28;20218;-64
2023/04/25 11:45:00;;;;;;;3.90;2.27;;;;;;;;;;5010322;28;20708;-62
2023/04/25 11:47:30;;;;;;;3.83;2.27;;;;;;;;;;5010631;28;20195;-62
2023/04/25 11:50:00;;;;;;;5.13;2.40;;;;;;;;;;5010532;28;20226;-63
2023/04/25 11:52:43;;;;;;;6.60;2.80;;;;;;;;;;5010779;28;20196;-63
2023/04/25 11:55:14;;;;;;;4.50;2.63;;;;;;;;;;5010762;28;20196;-63
2023/04/25 11:57:41;;;;;;;5.10;2.13;;;;;;;;;;5010523;28;20235;-63
2023/04/25 12:00:10;;;;;;;4.53;2.30;;;;;;;;;;5009933;28;20212;-64
2023/04/25 12:02:40;;;;;;;4.83;2.70;;;;;;;;;;4993509;28;20270;-63
2023/04/25 12:05:11;;;;;;;4.17;2.67;;;;;;;;;;5010006;28;20201;-63
2023/04/25 12:07:57;;;;;;;5.77;2.23;;;;;;;;;;5010321;28;20231;-63
2023/04/25 12:10:25;;;;;;;4.40;2.30;;;;;;;;;;5010782;28;20188;-63
2023/04/25 12:12:52;;;;;;;5.93;1.90;;;;;;;;;;5010280;28;20177;-64
2023/04/25 12:15:22;;;;;;;7.67;2.30;;;;;;;;;;4992690;28;20730;-63
2023/04/25 12:17:50;;;;;;;4.60;2.43;;;;;;;;;;5016764;28;20266;-63
2023/04/25 12:20:20;;;;;;;5.37;2.67;;;;;;;;;;5012264;28;20218;-63
2023/04/25 12:22:47;;;;;;;7.80;4.97;;;;;;;;;;5030012;28;20233;-63
2023/04/25 12:25:14;;;;;;;4.80;2.80;;;;;;;;;;5029844;28;20563;-63
2023/04/25 12:27:41;;;;;;;7.07;3.07;;;;;;;;;;5029720;28;20204;-63
2023/04/25 12:30:08;;;;;;;5.37;2.60;;;;;;;;;;5029316;28;20275;-63
2023/04/25 12:32:37;;;;;;;4.87;2.50;;;;;;;;;;5029686;28;20257;-63
2023/04/25 12:35:05;;;;;;;5.37;2.90;;;;;;;;;;5011922;28;20184;-65
2023/04/25 12:37:31;;;;;;;4.27;2.50;;;;;;;;;;5012469;28;20640;-64
2023/04/25 12:39:58;;;;;;;4.97;2.47;;;;;;;;;;5024803;28;20184;-64
2023/04/25 12:42:25;;;;;;;5.00;2.80;;;;;;;;;;5029438;28;20198;-63
2023/04/25 12:44:52;;;;;;;4.87;2.80;;;;;;;;;;5029046;28;20219;-63
2023/04/25 12:47:19;;;;;;;4.87;2.47;;;;;;;;;;5029410;28;20200;-63
2023/04/25 12:49:46;;;;;;;9.30;4.07;;;;;;;;;;5029400;28;20306;-64
2023/04/25 12:52:13;;;;;;;10.37;4.80;;;;;;;;;;5029333;28;20188;-64
2023/04/25 12:54:40;;;;;;;4.40;2.77;;;;;;;;;;5029029;28;20644;-64
2023/04/25 12:57:07;;;;;;;4.77;2.70;;;;;;;;;;5028459;28;20195;-64
2023/04/25 12:59:34;;;;;;;7.37;3.43;;;;;;;;;;5010315;28;20739;-65
2023/04/25 13:02:01;;;;;;;10.77;3.57;;;;;;;;;;5027588;28;20184;-64
2023/04/25 13:04:28;;;;;;;3.77;2.20;;;;;;;;;;5031607;28;20218;-64
2023/04/25 13:06:55;;;;;;;5.97;2.50;;;;;;;;;;5030047;28;20254;-64
2023/04/25 13:09:23;;;;;;;5.77;2.60;;;;;;;;;;5031975;28;20190;-64
2023/04/25 13:11:57;;;;;;;3.50;2.37;;;;;;;;;;5031476;28;20864;-63
2023/04/25 13:14:25;;;;;;;3.77;2.30;;;;;;;;;;5028086;28;20188;-64
2023/04/25 13:16:51;;;;;;;5.37;1.80;;;;;;;;;;5028831;28;20191;-64
2023/04/25 13:19:18;;;;;;;6.00;1.70;;;;;;;;;;5031754;28;20752;-63
2023/04/25 13:21:45;;;;;;;4.80;1.53;;;;;;;;;;5031468;28;20183;-63
2023/04/25 13:24:11;;;;;;;5.53;2.77;;;;;;;;;;5031114;28;20756;-64
2023/04/25 13:26:38;;;;;;;7.70;2.77;;;;;;;;;;5030621;28;20659;-63
2023/04/25 13:29:05;;;;;;;4.87;1.70;;;;;;;;;;5013664;28;20242;-64
2023/04/25 13:31:31;;;;;;;5.33;2.33;;;;;;;;;;5013747;28;20218;-63
2023/04/25 13:33:58;;;;;;;3.93;2.17;;;;;;;;;;5030998;28;20193;-65
2023/04/25 13:36:25;;;;;;;4.40;2.00;;;;;;;;;;5030767;28;20188;-63
2023/04/25 13:38:52;;;;;;;3.80;1.93;;;;;;;;;;5031157;28;20713;-63
2023/04/25 13:41:19;;;;;;;4.40;1.90;;;;;;;;;;5013148;28;20901;-63
2023/04/25 13:43:47;;;;;;;3.80;1.80;;;;;;;;;;5031624;28;20203;-62
2023/04/25 13:46:15;;;;;;;6.33;2.03;;;;;;;;;;5030833;28;20658;-62
2023/04/25 13:49:01;;;;;;;4.70;2.00;;;;;;;;;;5030842;28;20237;-63
2023/04/25 13:51:38;;;;;;;3.43;1.83;;;;;;;;;;5030738;28;20183;-63
2023/04/25 13:54:05;;;;;;;3.63;2.03;;;;;;;;;;5031067;28;20188;-63
2023/04/25 13:56:32;;;;;;;5.77;1.93;;;;;;;;;;5030815;28;20195;-63
2023/04/25 13:58:58;;;;;;;3.90;1.77;;;;;;;;;;5030580;28;20192;-63
2023/04/25 14:01:27;;;;;;;4.70;1.90;;;;;;;;;;5030539;28;20191;-63
2023/04/25 14:03:54;;;;;;;5.20;1.80;;;;;;;;;;5012832;28;20753;-63
2023/04/25 14:06:23;;;;;;;6.83;2.10;;;;;;;;;;5030813;28;20645;-63
2023/04/25 14:08:50;;;;;;;7.83;2.30;;;;;;;;;;5031409;28;20685;-63
2023/04/25 14:11:18;;;;;;;7.07;2.73;;;;;;;;;;5031648;28;20277;-63
2023/04/25 14:13:45;;;;;;;8.83;3.10;;;;;;;;;;5013452;28;20198;-64
2023/04/25 14:16:13;;;;;;;8.77;2.60;;;;;;;;;;5030500;28;20626;-63
2023/04/25 14:18:40;;;;;;;7.23;2.80;;;;;;;;;;5030690;28;20318;-63
2023/04/25 14:21:07;;;;;;;10.03;2.90;;;;;;;;;;5030969;28;20184;-63
2023/04/25 14:23:34;;;;;;;6.00;2.53;;;;;;;;;;5013752;28;20645;-63
2023/04/25 14:26:00;;;;;;;7.10;2.50;;;;;;;;;;5031022;28;20290;-63
2023/04/25 14:28:27;;;;;;;9.30;2.60;;;;;;;;;;5030357;28;20191;-63
2023/04/25 14:30:54;;;;;;;7.93;2.93;;;;;;;;;;5030286;28;20218;-64
2023/04/25 14:33:21;;;;;;;9.93;2.87;;;;;;;;;;5031139;28;20188;-63
2023/04/25 14:35:48;;;;;;;7.90;2.80;;;;;;;;;;5031059;28;20663;-63
2023/04/25 14:38:15;;;;;;;9.67;3.50;;;;;;;;;;5030937;28;20187;-63
2023/04/25 14:40:42;;;;;;;6.90;2.97;;;;;;;;;;5016331;28;20286;-62
2023/04/25 14:43:09;;;;;;;8.80;3.63;;;;;;;;;;5034268;28;20203;-63
2023/04/25 14:45:35;;;;;;;10.43;2.97;;;;;;;;;;5031567;28;20223;-62
2023/04/25 14:48:02;;;;;;;11.93;3.30;;;;;;;;;;5031493;28;20183;-63
2023/04/25 14:50:29;;;;;;;10.20;3.73;;;;;;;;;;5031825;28;20219;-62
2023/04/25 14:52:58;;;;;;;11.63;3.30;;;;;;;;;;5031341;28;20613;-65
2023/04/25 14:55:26;;;;;;;8.87;3.10;;;;;;;;;;5031882;28;20199;-65
2023/04/25 14:57:53;;;;;;;8.43;3.53;;;;;;;;;;5031346;28;20214;-62
2023/04/25 15:00:23;;;;;;;11.27;3.40;;;;;;;;;;5031246;28;20197;-63
2023/04/25 15:02:50;;;;;;;10.47;3.10;;;;;;;;;;5025034;28;20278;-62
2023/04/25 15:05:17;;;;;;;10.00;3.00;;;;;;;;;;5028648;28;20221;-63
2023/04/25 15:08:08;;;;;;;11.83;3.10;;;;;;;;;;5030720;28;20183;-63
2023/04/25 15:10:34;;;;;;;7.23;2.77;;;;;;;;;;5027293;28;20191;-63
2023/04/25 15:13:03;;;;;;;7.90;2.60;;;;;;;;;;5030187;28;20279;-63
2023/04/25 15:15:30;;;;;;;12.27;2.87;;;;;;;;;;5013541;28;20214;-62
2023/04/25 15:17:58;;;;;;;8.53;2.80;;;;;;;;;;5030750;28;20277;-63
2023/04/25 15:20:27;;;;;;;7.53;2.57;;;;;;;;;;5020729;28;20939;-63
2023/04/25 15:22:55;;;;;;;7.33;2.60;;;;;;;;;;5010986;28;20200;-63
2023/04/25 15:25:21;;;;;;;8.50;2.80;;;;;;;;;;5029762;28;20378;-62
2023/04/25 15:27:51;;;;;;;8.50;2.57;;;;;;;;;;5035618;28;20205;-64
2023/04/25 15:30:19;;;;;;;9.40;3.80;;;;;;;;;;5011855;28;20200;-63
2023/04/25 15:32:47;;;;;;;10.90;3.80;;;;;;;;;;5033922;28;20200;-63
2023/04/25 15:35:17;;;;;;;9.37;3.13;;;;;;;;;;5013819;28;20227;-63